sensor_id;sensor_type;location;lat;lon;timestamp;pressure;altitude;pressure_sealevel;temperature;humidity
27210;BME280;14721;42.668;23.386;2022-10-22T00:01:19;96151.66;;;8.38;89.48
27210;BME280;14721;42.668;23.386;2022-10-22T00:03:44;96152.16;;;8.29;89.73
27210;BME280;14721;42.668;23.386;2022-10-22T00:06:10;96163.59;;;8.31;90.17
27210;BME280;14721;42.668;23.386;2022-10-22T00:08:38;96154.66;;;8.15;90.25
27210;BME280;14721;42.668;23.386;2022-10-22T00:11:15;96164.44;;;8.14;90.59
27210;BME280;14721;42.668;23.386;2022-10-22T00:13:42;96154.25;;;8.05;90.62
27210;BME280;14721;42.668;23.386;2022-10-22T00:16:08;96159.59;;;8.05;91.10
27210;BME280;14721;42.668;23.386;2022-10-22T00:18:34;96154.56;;;7.99;90.45
27210;BME280;14721;42.668;23.386;2022-10-22T00:21:00;96156.44;;;7.97;90.43
27210;BME280;14721;42.668;23.386;2022-10-22T00:23:26;96158.94;;;8.00;90.19
27210;BME280;14721;42.668;23.386;2022-10-22T00:25:53;96161.69;;;7.99;90.46
27210;BME280;14721;42.668;23.386;2022-10-22T00:28:18;96150.63;;;7.72;91.05
27210;BME280;14721;42.668;23.386;2022-10-22T00:30:44;96157.84;;;7.87;91.29
27210;BME280;14721;42.668;23.386;2022-10-22T00:33:10;96154.41;;;7.85;90.82
27210;BME280;14721;42.668;23.386;2022-10-22T00:35:35;96141.41;;;7.79;91.05
27210;BME280;14721;42.668;23.386;2022-10-22T00:38:01;96111.06;;;7.66;90.98
27210;BME280;14721;42.668;23.386;2022-10-22T00:40:27;96142.91;;;7.85;90.79
27210;BME280;14721;42.668;23.386;2022-10-22T00:42:53;96136.34;;;7.92;90.88
27210;BME280;14721;42.668;23.386;2022-10-22T00:45:24;96141.19;;;8.01;90.74
27210;BME280;14721;42.668;23.386;2022-10-22T00:47:56;96139.78;;;7.94;90.66
27210;BME280;14721;42.668;23.386;2022-10-22T00:52:51;96141.09;;;8.02;90.97
27210;BME280;14721;42.668;23.386;2022-10-22T00:55:18;96145.41;;;8.05;90.53
27210;BME280;14721;42.668;23.386;2022-10-22T00:57:45;96136.03;;;7.98;91.16
27210;BME280;14721;42.668;23.386;2022-10-22T01:00:11;96116.91;;;7.90;91.07
27210;BME280;14721;42.668;23.386;2022-10-22T01:02:37;96126.78;;;7.88;90.70
27210;BME280;14721;42.668;23.386;2022-10-22T01:05:03;96137.97;;;7.94;91.02
27210;BME280;14721;42.668;23.386;2022-10-22T01:07:29;96095.25;;;7.80;90.79
27210;BME280;14721;42.668;23.386;2022-10-22T01:10:16;96111.00;;;7.85;90.80
27210;BME280;14721;42.668;23.386;2022-10-22T01:13:01;96110.44;;;7.95;91.02
27210;BME280;14721;42.668;23.386;2022-10-22T01:21:35;96102.94;;;7.86;91.00
27210;BME280;14721;42.668;23.386;2022-10-22T01:30:11;96082.72;;;7.82;91.78
27210;BME280;14721;42.668;23.386;2022-10-22T01:32:58;96100.25;;;7.86;91.77
27210;BME280;14721;42.668;23.386;2022-10-22T01:35:30;96093.75;;;7.92;91.46
27210;BME280;14721;42.668;23.386;2022-10-22T01:38:01;96086.56;;;7.94;91.70
27210;BME280;14721;42.668;23.386;2022-10-22T01:40:28;96067.06;;;7.76;91.27
27210;BME280;14721;42.668;23.386;2022-10-22T01:43:08;96080.88;;;7.67;92.04
27210;BME280;14721;42.668;23.386;2022-10-22T01:45:46;96055.50;;;7.60;92.36
27210;BME280;14721;42.668;23.386;2022-10-22T01:48:39;96070.31;;;7.65;92.35
27210;BME280;14721;42.668;23.386;2022-10-22T01:54:00;96076.94;;;7.57;92.72
27210;BME280;14721;42.668;23.386;2022-10-22T02:04:44;96086.19;;;7.50;92.79
27210;BME280;14721;42.668;23.386;2022-10-22T02:07:14;96084.31;;;7.52;92.94
27210;BME280;14721;42.668;23.386;2022-10-22T02:09:43;96083.09;;;7.40;92.56
27210;BME280;14721;42.668;23.386;2022-10-22T02:12:10;96081.84;;;7.30;92.63
27210;BME280;14721;42.668;23.386;2022-10-22T02:14:39;96095.59;;;7.21;92.68
27210;BME280;14721;42.668;23.386;2022-10-22T02:17:07;96084.97;;;7.21;93.11
27210;BME280;14721;42.668;23.386;2022-10-22T02:22:10;96084.97;;;7.21;92.71
27210;BME280;14721;42.668;23.386;2022-10-22T02:24:36;96083.19;;;7.22;92.95
27210;BME280;14721;42.668;23.386;2022-10-22T02:27:09;96083.56;;;7.14;93.11
27210;BME280;14721;42.668;23.386;2022-10-22T02:29:47;96069.63;;;7.09;93.90
27210;BME280;14721;42.668;23.386;2022-10-22T02:32:17;96069.97;;;7.20;94.15
27210;BME280;14721;42.668;23.386;2022-10-22T02:34:46;96080.28;;;7.26;93.76
27210;BME280;14721;42.668;23.386;2022-10-22T02:37:14;96089.41;;;7.21;94.14
27210;BME280;14721;42.668;23.386;2022-10-22T02:39:41;96072.91;;;7.14;93.97
27210;BME280;14721;42.668;23.386;2022-10-22T02:42:07;96052.03;;;7.07;93.88
27210;BME280;14721;42.668;23.386;2022-10-22T02:44:33;96093.59;;;7.08;94.26
27210;BME280;14721;42.668;23.386;2022-10-22T02:46:59;96095.69;;;7.01;94.88
27210;BME280;14721;42.668;23.386;2022-10-22T02:49:25;96083.13;;;7.05;94.75
27210;BME280;14721;42.668;23.386;2022-10-22T02:51:54;96099.78;;;7.08;94.68
27210;BME280;14721;42.668;23.386;2022-10-22T02:54:20;96072.16;;;6.94;94.84
27210;BME280;14721;42.668;23.386;2022-10-22T02:56:48;96096.91;;;7.13;94.63
27210;BME280;14721;42.668;23.386;2022-10-22T02:59:14;96086.44;;;7.10;94.76
27210;BME280;14721;42.668;23.386;2022-10-22T03:01:40;96097.31;;;7.22;94.34
27210;BME280;14721;42.668;23.386;2022-10-22T03:04:07;96097.53;;;7.18;94.91
27210;BME280;14721;42.668;23.386;2022-10-22T03:06:32;96071.47;;;7.07;94.32
27210;BME280;14721;42.668;23.386;2022-10-22T03:08:58;96098.81;;;7.28;94.09
27210;BME280;14721;42.668;23.386;2022-10-22T03:11:24;96104.59;;;7.19;94.15
27210;BME280;14721;42.668;23.386;2022-10-22T03:13:50;96099.44;;;7.16;94.67
27210;BME280;14721;42.668;23.386;2022-10-22T03:16:19;96095.41;;;7.07;95.17
27210;BME280;14721;42.668;23.386;2022-10-22T03:18:44;96096.03;;;7.12;95.42
27210;BME280;14721;42.668;23.386;2022-10-22T03:21:27;96099.19;;;7.20;95.32
27210;BME280;14721;42.668;23.386;2022-10-22T03:23:54;96093.72;;;7.23;94.99
27210;BME280;14721;42.668;23.386;2022-10-22T03:26:20;96079.19;;;7.30;94.00
27210;BME280;14721;42.668;23.386;2022-10-22T03:28:46;96076.38;;;7.33;93.86
27210;BME280;14721;42.668;23.386;2022-10-22T03:31:13;96078.81;;;7.38;93.40
27210;BME280;14721;42.668;23.386;2022-10-22T03:33:40;96083.25;;;7.37;93.14
27210;BME280;14721;42.668;23.386;2022-10-22T03:36:06;96080.00;;;7.32;93.75
27210;BME280;14721;42.668;23.386;2022-10-22T03:38:34;96078.09;;;7.34;93.65
27210;BME280;14721;42.668;23.386;2022-10-22T03:41:00;96079.69;;;7.38;92.73
27210;BME280;14721;42.668;23.386;2022-10-22T03:43:26;96080.38;;;7.42;92.86
27210;BME280;14721;42.668;23.386;2022-10-22T03:45:55;96078.34;;;7.47;92.78
27210;BME280;14721;42.668;23.386;2022-10-22T03:48:21;96074.22;;;7.41;92.16
27210;BME280;14721;42.668;23.386;2022-10-22T03:50:46;96075.59;;;7.31;92.49
27210;BME280;14721;42.668;23.386;2022-10-22T03:53:12;96067.00;;;7.26;92.95
27210;BME280;14721;42.668;23.386;2022-10-22T03:55:39;96083.63;;;7.30;93.10
27210;BME280;14721;42.668;23.386;2022-10-22T03:58:05;96088.28;;;7.08;93.30
27210;BME280;14721;42.668;23.386;2022-10-22T04:00:32;96092.34;;;6.98;93.67
27210;BME280;14721;42.668;23.386;2022-10-22T04:02:59;96090.06;;;7.07;93.64
27210;BME280;14721;42.668;23.386;2022-10-22T04:05:25;96081.97;;;7.10;93.44
27210;BME280;14721;42.668;23.386;2022-10-22T04:07:52;96090.38;;;7.01;93.34
27210;BME280;14721;42.668;23.386;2022-10-22T04:10:18;96067.34;;;6.83;94.11
27210;BME280;14721;42.668;23.386;2022-10-22T04:12:46;96055.31;;;6.76;94.14
27210;BME280;14721;42.668;23.386;2022-10-22T04:15:12;96071.53;;;6.89;94.24
27210;BME280;14721;42.668;23.386;2022-10-22T04:17:38;96068.28;;;6.82;94.00
27210;BME280;14721;42.668;23.386;2022-10-22T04:20:04;96060.13;;;6.68;94.87
27210;BME280;14721;42.668;23.386;2022-10-22T04:22:33;96078.78;;;6.85;94.78
27210;BME280;14721;42.668;23.386;2022-10-22T04:24:59;96068.66;;;6.93;94.80
27210;BME280;14721;42.668;23.386;2022-10-22T04:27:27;96070.16;;;6.80;94.90
27210;BME280;14721;42.668;23.386;2022-10-22T04:29:53;96081.28;;;6.88;95.25
27210;BME280;14721;42.668;23.386;2022-10-22T04:32:19;96066.59;;;6.81;95.38
27210;BME280;14721;42.668;23.386;2022-10-22T04:34:44;96068.50;;;6.96;95.01
27210;BME280;14721;42.668;23.386;2022-10-22T04:37:09;96071.78;;;7.01;94.65
27210;BME280;14721;42.668;23.386;2022-10-22T04:39:35;96054.13;;;6.82;95.17
27210;BME280;14721;42.668;23.386;2022-10-22T04:42:00;96066.38;;;6.86;94.95
27210;BME280;14721;42.668;23.386;2022-10-22T04:44:28;96085.56;;;7.09;94.90
27210;BME280;14721;42.668;23.386;2022-10-22T04:46:54;96077.22;;;7.17;94.61
27210;BME280;14721;42.668;23.386;2022-10-22T04:49:19;96078.09;;;7.17;95.05
27210;BME280;14721;42.668;23.386;2022-10-22T04:51:45;96068.41;;;7.33;94.14
27210;BME280;14721;42.668;23.386;2022-10-22T04:54:11;96069.72;;;7.25;94.10
27210;BME280;14721;42.668;23.386;2022-10-22T04:56:36;96069.44;;;7.31;93.77
27210;BME280;14721;42.668;23.386;2022-10-22T04:59:07;96084.13;;;7.38;93.47
27210;BME280;14721;42.668;23.386;2022-10-22T05:01:38;96081.06;;;7.28;93.27
27210;BME280;14721;42.668;23.386;2022-10-22T05:04:06;96088.50;;;7.22;93.25
27210;BME280;14721;42.668;23.386;2022-10-22T05:06:34;96091.84;;;7.25;93.78
27210;BME280;14721;42.668;23.386;2022-10-22T05:09:12;96086.72;;;7.39;92.66
27210;BME280;14721;42.668;23.386;2022-10-22T05:11:42;96091.19;;;7.56;92.60
27210;BME280;14721;42.668;23.386;2022-10-22T05:14:14;96099.72;;;7.62;91.46
27210;BME280;14721;42.668;23.386;2022-10-22T05:16:41;96113.03;;;7.62;90.90
27210;BME280;14721;42.668;23.386;2022-10-22T05:19:07;96111.44;;;7.58;90.28
27210;BME280;14721;42.668;23.386;2022-10-22T05:21:33;96106.19;;;7.57;90.28
27210;BME280;14721;42.668;23.386;2022-10-22T05:23:59;96101.72;;;7.40;90.73
27210;BME280;14721;42.668;23.386;2022-10-22T05:26:26;96115.47;;;7.31;91.55
27210;BME280;14721;42.668;23.386;2022-10-22T05:28:52;96106.03;;;7.43;91.09
27210;BME280;14721;42.668;23.386;2022-10-22T05:31:18;96098.16;;;7.41;91.45
27210;BME280;14721;42.668;23.386;2022-10-22T05:33:44;96100.13;;;7.55;91.19
27210;BME280;14721;42.668;23.386;2022-10-22T05:36:16;96074.81;;;7.46;90.65
27210;BME280;14721;42.668;23.386;2022-10-22T05:38:42;96113.56;;;7.69;90.35
27210;BME280;14721;42.668;23.386;2022-10-22T05:41:09;96117.69;;;7.74;90.38
27210;BME280;14721;42.668;23.386;2022-10-22T05:43:36;96093.78;;;7.57;90.25
27210;BME280;14721;42.668;23.386;2022-10-22T05:46:05;96124.44;;;7.82;90.55
27210;BME280;14721;42.668;23.386;2022-10-22T05:48:31;96122.72;;;7.98;89.43
27210;BME280;14721;42.668;23.386;2022-10-22T05:51:21;96111.50;;;8.08;89.05
27210;BME280;14721;42.668;23.386;2022-10-22T05:53:51;96121.59;;;8.19;88.66
27210;BME280;14721;42.668;23.386;2022-10-22T05:56:17;96089.59;;;8.53;87.94
27210;BME280;14721;42.668;23.386;2022-10-22T05:58:43;96072.84;;;9.44;84.94
27210;BME280;14721;42.668;23.386;2022-10-22T06:01:17;96101.88;;;10.09;80.88
27210;BME280;14721;42.668;23.386;2022-10-22T06:03:44;96107.63;;;10.17;79.13
27210;BME280;14721;42.668;23.386;2022-10-22T06:06:19;96109.34;;;10.18;79.01
27210;BME280;14721;42.668;23.386;2022-10-22T06:08:47;96089.56;;;10.07;78.10
27210;BME280;14721;42.668;23.386;2022-10-22T06:11:15;96109.38;;;10.03;78.30
27210;BME280;14721;42.668;23.386;2022-10-22T06:13:45;96112.22;;;10.43;78.42
27210;BME280;14721;42.668;23.386;2022-10-22T06:16:11;96107.81;;;11.53;75.07
27210;BME280;14721;42.668;23.386;2022-10-22T06:18:37;96089.63;;;12.24;69.91
27210;BME280;14721;42.668;23.386;2022-10-22T06:21:07;96103.69;;;12.52;67.84
27210;BME280;14721;42.668;23.386;2022-10-22T06:23:33;96094.47;;;12.44;67.09
27210;BME280;14721;42.668;23.386;2022-10-22T06:25:59;96110.75;;;12.91;66.47
27210;BME280;14721;42.668;23.386;2022-10-22T06:28:28;96111.53;;;13.54;64.62
27210;BME280;14721;42.668;23.386;2022-10-22T06:30:53;96100.38;;;14.18;61.94
27210;BME280;14721;42.668;23.386;2022-10-22T06:33:18;96105.44;;;14.68;60.42
27210;BME280;14721;42.668;23.386;2022-10-22T06:35:44;96101.69;;;14.93;59.45
27210;BME280;14721;42.668;23.386;2022-10-22T06:38:10;96112.47;;;15.48;56.72
27210;BME280;14721;42.668;23.386;2022-10-22T06:40:36;96116.22;;;15.68;55.69
27210;BME280;14721;42.668;23.386;2022-10-22T06:43:01;96109.59;;;15.83;55.06
27210;BME280;14721;42.668;23.386;2022-10-22T06:45:27;96096.28;;;16.02;54.24
27210;BME280;14721;42.668;23.386;2022-10-22T06:47:53;96087.78;;;16.17;53.57
27210;BME280;14721;42.668;23.386;2022-10-22T06:50:19;96107.94;;;16.45;52.89
27210;BME280;14721;42.668;23.386;2022-10-22T06:52:45;96104.72;;;16.51;53.09
27210;BME280;14721;42.668;23.386;2022-10-22T06:55:11;96087.53;;;16.41;52.68
27210;BME280;14721;42.668;23.386;2022-10-22T06:57:36;96099.88;;;16.96;51.86
27210;BME280;14721;42.668;23.386;2022-10-22T07:00:05;96097.06;;;17.27;50.84
27210;BME280;14721;42.668;23.386;2022-10-22T07:02:31;96089.41;;;17.32;50.54
27210;BME280;14721;42.668;23.386;2022-10-22T07:04:56;96101.66;;;17.66;49.23
27210;BME280;14721;42.668;23.386;2022-10-22T07:07:22;96105.16;;;18.06;48.17
27210;BME280;14721;42.668;23.386;2022-10-22T07:09:47;96113.25;;;18.06;48.12
27210;BME280;14721;42.668;23.386;2022-10-22T07:12:14;96101.03;;;18.02;48.07
27210;BME280;14721;42.668;23.386;2022-10-22T07:14:40;96097.75;;;18.08;47.96
27210;BME280;14721;42.668;23.386;2022-10-22T07:17:05;96056.03;;;18.11;47.69
27210;BME280;14721;42.668;23.386;2022-10-22T07:19:31;96094.34;;;18.83;46.50
27210;BME280;14721;42.668;23.386;2022-10-22T07:21:57;96083.69;;;18.72;46.25
27210;BME280;14721;42.668;23.386;2022-10-22T07:24:22;96088.06;;;18.92;46.29
27210;BME280;14721;42.668;23.386;2022-10-22T07:26:48;96097.53;;;19.34;45.11
27210;BME280;14721;42.668;23.386;2022-10-22T07:29:13;96095.53;;;19.26;44.82
27210;BME280;14721;42.668;23.386;2022-10-22T07:31:40;96099.00;;;19.55;44.16
27210;BME280;14721;42.668;23.386;2022-10-22T07:34:06;96067.22;;;19.48;43.68
27210;BME280;14721;42.668;23.386;2022-10-22T07:36:32;96087.97;;;19.39;43.98
27210;BME280;14721;42.668;23.386;2022-10-22T07:38:58;96089.28;;;19.62;43.65
27210;BME280;14721;42.668;23.386;2022-10-22T07:41:25;96087.72;;;19.87;43.88
27210;BME280;14721;42.668;23.386;2022-10-22T07:43:51;96089.00;;;20.37;42.33
27210;BME280;14721;42.668;23.386;2022-10-22T07:46:18;96076.75;;;20.51;41.82
27210;BME280;14721;42.668;23.386;2022-10-22T07:48:43;96061.06;;;20.44;41.91
27210;BME280;14721;42.668;23.386;2022-10-22T07:51:09;96080.22;;;20.43;41.77
27210;BME280;14721;42.668;23.386;2022-10-22T07:53:35;96058.97;;;20.38;41.94
27210;BME280;14721;42.668;23.386;2022-10-22T07:56:00;96038.53;;;19.99;42.39
27210;BME280;14721;42.668;23.386;2022-10-22T07:58:26;96063.78;;;19.82;42.72
27210;BME280;14721;42.668;23.386;2022-10-22T08:00:56;96069.94;;;19.75;43.05
27210;BME280;14721;42.668;23.386;2022-10-22T08:03:22;96065.56;;;19.37;43.78
27210;BME280;14721;42.668;23.386;2022-10-22T08:05:48;96074.84;;;18.69;44.92
27210;BME280;14721;42.668;23.386;2022-10-22T08:08:15;96067.91;;;18.38;45.83
27210;BME280;14721;42.668;23.386;2022-10-22T08:10:41;96065.97;;;17.91;46.63
27210;BME280;14721;42.668;23.386;2022-10-22T08:13:07;96059.81;;;17.70;46.93
27210;BME280;14721;42.668;23.386;2022-10-22T08:15:33;96038.94;;;16.93;48.94
27210;BME280;14721;42.668;23.386;2022-10-22T08:17:58;96045.63;;;16.99;49.79
27210;BME280;14721;42.668;23.386;2022-10-22T08:20:24;96056.00;;;17.03;50.66
27210;BME280;14721;42.668;23.386;2022-10-22T08:22:50;96053.75;;;16.78;50.15
27210;BME280;14721;42.668;23.386;2022-10-22T08:25:15;96059.03;;;16.59;50.47
27210;BME280;14721;42.668;23.386;2022-10-22T08:27:43;96049.66;;;16.42;50.84
27210;BME280;14721;42.668;23.386;2022-10-22T08:30:09;96046.81;;;16.23;51.59
27210;BME280;14721;42.668;23.386;2022-10-22T08:32:34;96051.59;;;16.20;52.59
27210;BME280;14721;42.668;23.386;2022-10-22T08:35:00;96034.50;;;16.10;52.52
27210;BME280;14721;42.668;23.386;2022-10-22T08:37:25;96044.63;;;15.97;53.10
27210;BME280;14721;42.668;23.386;2022-10-22T08:39:51;96053.59;;;16.18;53.52
27210;BME280;14721;42.668;23.386;2022-10-22T08:42:38;96044.28;;;16.11;52.86
27210;BME280;14721;42.668;23.386;2022-10-22T08:45:19;96057.81;;;16.31;52.62
27210;BME280;14721;42.668;23.386;2022-10-22T08:50:41;96057.09;;;16.29;52.99
27210;BME280;14721;42.668;23.386;2022-10-22T08:53:21;96041.28;;;16.25;52.91
27210;BME280;14721;42.668;23.386;2022-10-22T08:55:48;96049.78;;;16.41;53.12
27210;BME280;14721;42.668;23.386;2022-10-22T09:01:03;96051.84;;;15.96;53.24
27210;BME280;14721;42.668;23.386;2022-10-22T09:06:17;96052.63;;;15.76;54.82
27210;BME280;14721;42.668;23.386;2022-10-22T09:08:45;96033.53;;;15.79;54.43
27210;BME280;14721;42.668;23.386;2022-10-22T09:13:38;96034.97;;;16.15;54.47
27210;BME280;14721;42.668;23.386;2022-10-22T09:16:17;96039.38;;;16.36;54.04
27210;BME280;14721;42.668;23.386;2022-10-22T09:24:08;96032.16;;;16.16;54.27
27210;BME280;14721;42.668;23.386;2022-10-22T09:26:38;96020.75;;;16.13;54.09
27210;BME280;14721;42.668;23.386;2022-10-22T09:29:04;96024.91;;;16.17;54.10
27210;BME280;14721;42.668;23.386;2022-10-22T09:31:31;96027.75;;;16.36;54.16
27210;BME280;14721;42.668;23.386;2022-10-22T09:33:58;96016.72;;;16.39;54.20
27210;BME280;14721;42.668;23.386;2022-10-22T09:36:27;96014.16;;;16.37;53.65
27210;BME280;14721;42.668;23.386;2022-10-22T09:38:53;96016.94;;;16.15;53.81
27210;BME280;14721;42.668;23.386;2022-10-22T09:41:24;96013.84;;;16.20;54.30
27210;BME280;14721;42.668;23.386;2022-10-22T09:43:50;96007.81;;;16.07;54.18
27210;BME280;14721;42.668;23.386;2022-10-22T09:46:19;96006.91;;;16.17;54.32
27210;BME280;14721;42.668;23.386;2022-10-22T09:48:51;95996.91;;;16.08;54.53
27210;BME280;14721;42.668;23.386;2022-10-22T09:51:20;95970.06;;;15.86;55.15
27210;BME280;14721;42.668;23.386;2022-10-22T09:53:55;95995.44;;;16.04;54.82
27210;BME280;14721;42.668;23.386;2022-10-22T09:58:51;95996.41;;;16.03;55.18
27210;BME280;14721;42.668;23.386;2022-10-22T10:01:20;96000.59;;;16.07;55.33
27210;BME280;14721;42.668;23.386;2022-10-22T10:03:47;95993.53;;;16.16;55.26
27210;BME280;14721;42.668;23.386;2022-10-22T10:06:20;95990.97;;;16.14;55.20
27210;BME280;14721;42.668;23.386;2022-10-22T10:08:47;95969.22;;;16.27;55.24
27210;BME280;14721;42.668;23.386;2022-10-22T10:13:50;95969.22;;;16.27;54.96
27210;BME280;14721;42.668;23.386;2022-10-22T10:16:31;95981.38;;;16.42;54.85
27210;BME280;14721;42.668;23.386;2022-10-22T10:19:25;95976.03;;;16.31;55.20
27210;BME280;14721;42.668;23.386;2022-10-22T10:30:55;95953.16;;;16.46;55.14
27210;BME280;14721;42.668;23.386;2022-10-22T10:36:16;95940.84;;;16.53;55.36
27210;BME280;14721;42.668;23.386;2022-10-22T10:38:53;95945.63;;;16.70;54.56
27210;BME280;14721;42.668;23.386;2022-10-22T10:49:25;95911.97;;;17.23;53.81
27210;BME280;14721;42.668;23.386;2022-10-22T10:52:10;95899.03;;;17.27;53.54
27210;BME280;14721;42.668;23.386;2022-10-22T11:00:22;95903.06;;;17.51;51.84
27210;BME280;14721;42.668;23.386;2022-10-22T11:05:57;95883.03;;;17.63;51.56
27210;BME280;14721;42.668;23.386;2022-10-22T11:08:57;95875.47;;;17.57;51.69
27210;BME280;14721;42.668;23.386;2022-10-22T11:11:43;95867.22;;;17.49;51.40
27210;BME280;14721;42.668;23.386;2022-10-22T11:16:57;95860.00;;;17.59;51.00
27210;BME280;14721;42.668;23.386;2022-10-22T11:19:33;95856.72;;;17.65;50.90
27210;BME280;14721;42.668;23.386;2022-10-22T11:24:45;95846.59;;;17.67;50.66
27210;BME280;14721;42.668;23.386;2022-10-22T11:27:26;95841.75;;;17.71;50.35
27210;BME280;14721;42.668;23.386;2022-10-22T11:30:02;95841.38;;;17.56;51.17
27210;BME280;14721;42.668;23.386;2022-10-22T11:32:29;95837.50;;;17.68;51.10
27210;BME280;14721;42.668;23.386;2022-10-22T11:34:58;95820.44;;;17.77;50.90
27210;BME280;14721;42.668;23.386;2022-10-22T11:37:30;95824.97;;;17.86;50.45
27210;BME280;14721;42.668;23.386;2022-10-22T11:40:05;95825.50;;;17.90;50.52
27210;BME280;14721;42.668;23.386;2022-10-22T11:42:35;95823.50;;;17.92;49.90
27210;BME280;14721;42.668;23.386;2022-10-22T11:45:26;95818.81;;;17.94;49.29
27210;BME280;14721;42.668;23.386;2022-10-22T12:00:54;95809.09;;;18.47;48.64
27210;BME280;14721;42.668;23.386;2022-10-22T12:16:55;95767.41;;;18.67;47.88
27210;BME280;14721;42.668;23.386;2022-10-22T12:19:25;95784.88;;;18.73;47.34
27210;BME280;14721;42.668;23.386;2022-10-22T12:24:35;95765.81;;;18.92;47.21
27210;BME280;14721;42.668;23.386;2022-10-22T12:27:19;95773.31;;;18.98;47.33
27210;BME280;14721;42.668;23.386;2022-10-22T12:29:46;95771.41;;;19.08;47.08
27210;BME280;14721;42.668;23.386;2022-10-22T12:32:14;95770.06;;;19.12;46.78
27210;BME280;14721;42.668;23.386;2022-10-22T12:34:48;95758.78;;;18.99;46.95
27210;BME280;14721;42.668;23.386;2022-10-22T12:37:16;95764.34;;;19.15;47.10
27210;BME280;14721;42.668;23.386;2022-10-22T12:39:45;95764.69;;;19.29;46.57
27210;BME280;14721;42.668;23.386;2022-10-22T12:42:16;95760.13;;;19.30;46.11
27210;BME280;14721;42.668;23.386;2022-10-22T12:44:45;95736.97;;;19.35;45.90
27210;BME280;14721;42.668;23.386;2022-10-22T12:47:15;95758.47;;;19.37;45.71
27210;BME280;14721;42.668;23.386;2022-10-22T12:49:45;95742.94;;;19.39;45.60
27210;BME280;14721;42.668;23.386;2022-10-22T12:52:21;95741.25;;;19.38;46.06
27210;BME280;14721;42.668;23.386;2022-10-22T12:54:50;95743.16;;;19.45;45.74
27210;BME280;14721;42.668;23.386;2022-10-22T12:57:18;95742.00;;;19.48;45.63
27210;BME280;14721;42.668;23.386;2022-10-22T12:59:49;95734.16;;;19.45;45.68
27210;BME280;14721;42.668;23.386;2022-10-22T13:02:26;95736.25;;;19.51;45.79
27210;BME280;14721;42.668;23.386;2022-10-22T13:05:19;95736.00;;;19.62;45.85
27210;BME280;14721;42.668;23.386;2022-10-22T13:08:00;95727.56;;;19.65;45.72
27210;BME280;14721;42.668;23.386;2022-10-22T13:10:39;95729.00;;;19.77;45.58
27210;BME280;14721;42.668;23.386;2022-10-22T13:13:06;95722.22;;;19.81;45.20
27210;BME280;14721;42.668;23.386;2022-10-22T13:18:20;95729.03;;;19.85;45.08
27210;BME280;14721;42.668;23.386;2022-10-22T13:20:58;95725.66;;;19.83;45.08
27210;BME280;14721;42.668;23.386;2022-10-22T13:23:28;95731.91;;;19.83;44.88
27210;BME280;14721;42.668;23.386;2022-10-22T13:26:14;95721.22;;;19.82;45.21
27210;BME280;14721;42.668;23.386;2022-10-22T13:28:41;95717.19;;;19.86;45.06
27210;BME280;14721;42.668;23.386;2022-10-22T13:31:15;95720.22;;;19.83;45.24
27210;BME280;14721;42.668;23.386;2022-10-22T13:33:43;95716.00;;;19.88;45.40
27210;BME280;14721;42.668;23.386;2022-10-22T13:36:13;95707.88;;;19.88;45.35
27210;BME280;14721;42.668;23.386;2022-10-22T13:38:40;95712.28;;;19.89;45.15
27210;BME280;14721;42.668;23.386;2022-10-22T13:41:27;95717.34;;;19.84;45.21
27210;BME280;14721;42.668;23.386;2022-10-22T13:43:54;95711.44;;;19.89;45.11
27210;BME280;14721;42.668;23.386;2022-10-22T13:46:20;95710.41;;;19.90;45.23
27210;BME280;14721;42.668;23.386;2022-10-22T13:48:47;95700.91;;;19.86;45.10
27210;BME280;14721;42.668;23.386;2022-10-22T13:51:17;95708.56;;;19.90;45.20
27210;BME280;14721;42.668;23.386;2022-10-22T13:53:44;95705.72;;;20.00;45.17
27210;BME280;14721;42.668;23.386;2022-10-22T13:56:15;95708.44;;;20.00;45.02
27210;BME280;14721;42.668;23.386;2022-10-22T13:58:42;95710.09;;;19.93;45.33
27210;BME280;14721;42.668;23.386;2022-10-22T14:01:19;95700.94;;;19.94;45.19
27210;BME280;14721;42.668;23.386;2022-10-22T14:03:45;95702.13;;;19.91;45.39
27210;BME280;14721;42.668;23.386;2022-10-22T14:06:13;95704.84;;;19.91;45.46
27210;BME280;14721;42.668;23.386;2022-10-22T14:08:40;95704.78;;;19.83;45.56
27210;BME280;14721;42.668;23.386;2022-10-22T14:11:09;95708.34;;;19.84;45.77
27210;BME280;14721;42.668;23.386;2022-10-22T14:13:35;95707.97;;;19.79;45.49
27210;BME280;14721;42.668;23.386;2022-10-22T14:16:03;95705.97;;;19.81;45.46
27210;BME280;14721;42.668;23.386;2022-10-22T14:18:29;95705.63;;;19.84;45.58
27210;BME280;14721;42.668;23.386;2022-10-22T14:20:59;95694.78;;;19.84;45.47
27210;BME280;14721;42.668;23.386;2022-10-22T14:23:30;95701.72;;;19.78;45.65
27210;BME280;14721;42.668;23.386;2022-10-22T14:25:57;95692.50;;;19.71;45.86
27210;BME280;14721;42.668;23.386;2022-10-22T14:28:24;95687.88;;;19.64;45.92
27210;BME280;14721;42.668;23.386;2022-10-22T14:30:50;95693.53;;;19.70;46.01
27210;BME280;14721;42.668;23.386;2022-10-22T14:33:28;95646.44;;;19.46;46.20
27210;BME280;14721;42.668;23.386;2022-10-22T14:35:55;95687.94;;;19.72;46.33
27210;BME280;14721;42.668;23.386;2022-10-22T14:38:21;95685.88;;;19.66;46.41
27210;BME280;14721;42.668;23.386;2022-10-22T14:40:47;95692.03;;;19.76;46.08
27210;BME280;14721;42.668;23.386;2022-10-22T14:43:23;95685.53;;;19.69;46.30
27210;BME280;14721;42.668;23.386;2022-10-22T14:45:49;95660.03;;;19.54;46.29
27210;BME280;14721;42.668;23.386;2022-10-22T14:48:15;95684.38;;;19.71;46.23
27210;BME280;14721;42.668;23.386;2022-10-22T14:50:46;95692.03;;;19.76;46.03
27210;BME280;14721;42.668;23.386;2022-10-22T14:53:12;95691.53;;;19.80;46.03
27210;BME280;14721;42.668;23.386;2022-10-22T14:55:39;95689.53;;;19.82;46.11
27210;BME280;14721;42.668;23.386;2022-10-22T14:58:05;95695.44;;;19.78;46.28
27210;BME280;14721;42.668;23.386;2022-10-22T15:00:31;95678.13;;;19.71;46.33